sensor_id;sensor_type;location;lat;lon;timestamp;P1;durP1;ratioP1;P2;durP2;ratioP2
62704;SDS011;48767;50.754;8.772;2022-07-29T00:00:17;8.13;;;1.20;;
62704;SDS011;48767;50.754;8.772;2022-07-29T00:02:44;2.25;;;1.13;;
62704;SDS011;48767;50.754;8.772;2022-07-29T00:05:10;4.53;;;1.40;;
62704;SDS011;48767;50.754;8.772;2022-07-29T00:07:38;4.13;;;1.20;;
62704;SDS011;48767;50.754;8.772;2022-07-29T00:10:05;3.95;;;1.35;;
62704;SDS011;48767;50.754;8.772;2022-07-29T00:12:33;8.05;;;1.52;;
62704;SDS011;48767;50.754;8.772;2022-07-29T00:15:00;2.72;;;1.33;;
62704;SDS011;48767;50.754;8.772;2022-07-29T00:17:27;3.15;;;1.20;;
62704;SDS011;48767;50.754;8.772;2022-07-29T00:19:53;4.78;;;1.00;;
62704;SDS011;48767;50.754;8.772;2022-07-29T00:22:20;2.50;;;1.13;;
62704;SDS011;48767;50.754;8.772;2022-07-29T00:24:46;2.50;;;1.00;;
62704;SDS011;48767;50.754;8.772;2022-07-29T00:27:13;4.60;;;1.20;;
62704;SDS011;48767;50.754;8.772;2022-07-29T00:29:41;4.28;;;1.30;;
62704;SDS011;48767;50.754;8.772;2022-07-29T00:34:34;6.72;;;1.58;;
62704;SDS011;48767;50.754;8.772;2022-07-29T00:37:18;9.00;;;1.77;;
62704;SDS011;48767;50.754;8.772;2022-07-29T00:39:45;2.45;;;1.17;;
62704;SDS011;48767;50.754;8.772;2022-07-29T00:42:11;3.28;;;1.65;;
62704;SDS011;48767;50.754;8.772;2022-07-29T00:44:38;3.15;;;1.10;;
62704;SDS011;48767;50.754;8.772;2022-07-29T00:47:06;3.67;;;1.20;;
62704;SDS011;48767;50.754;8.772;2022-07-29T00:49:34;4.28;;;1.23;;
62704;SDS011;48767;50.754;8.772;2022-07-29T00:52:01;2.80;;;1.20;;
62704;SDS011;48767;50.754;8.772;2022-07-29T00:54:28;3.75;;;1.50;;
62704;SDS011;48767;50.754;8.772;2022-07-29T00:56:55;5.25;;;1.45;;
62704;SDS011;48767;50.754;8.772;2022-07-29T00:59:23;2.15;;;1.20;;
62704;SDS011;48767;50.754;8.772;2022-07-29T01:01:50;7.00;;;1.63;;
62704;SDS011;48767;50.754;8.772;2022-07-29T01:04:18;5.88;;;1.23;;
62704;SDS011;48767;50.754;8.772;2022-07-29T01:06:45;4.47;;;1.40;;
62704;SDS011;48767;50.754;8.772;2022-07-29T01:09:12;3.22;;;1.42;;
62704;SDS011;48767;50.754;8.772;2022-07-29T01:11:40;4.57;;;1.00;;
62704;SDS011;48767;50.754;8.772;2022-07-29T01:14:07;2.67;;;1.08;;
62704;SDS011;48767;50.754;8.772;2022-07-29T01:19:06;2.05;;;1.00;;
62704;SDS011;48767;50.754;8.772;2022-07-29T01:21:45;2.17;;;1.10;;
62704;SDS011;48767;50.754;8.772;2022-07-29T01:24:23;2.90;;;1.23;;
62704;SDS011;48767;50.754;8.772;2022-07-29T01:27:02;4.53;;;1.20;;
62704;SDS011;48767;50.754;8.772;2022-07-29T01:29:35;1.63;;;1.10;;
62704;SDS011;48767;50.754;8.772;2022-07-29T01:32:05;2.85;;;1.45;;
62704;SDS011;48767;50.754;8.772;2022-07-29T01:34:35;2.70;;;1.20;;
62704;SDS011;48767;50.754;8.772;2022-07-29T01:37:08;2.05;;;0.90;;
62704;SDS011;48767;50.754;8.772;2022-07-29T01:39:44;1.30;;;0.90;;
62704;SDS011;48767;50.754;8.772;2022-07-29T01:42:14;2.97;;;1.63;;
62704;SDS011;48767;50.754;8.772;2022-07-29T01:44:48;4.30;;;1.42;;
62704;SDS011;48767;50.754;8.772;2022-07-29T01:47:23;3.58;;;1.17;;
62704;SDS011;48767;50.754;8.772;2022-07-29T01:49:56;3.35;;;1.40;;
62704;SDS011;48767;50.754;8.772;2022-07-29T01:52:27;7.80;;;1.27;;
62704;SDS011;48767;50.754;8.772;2022-07-29T01:55:02;5.90;;;1.60;;
62704;SDS011;48767;50.754;8.772;2022-07-29T01:57:34;3.50;;;1.30;;
62704;SDS011;48767;50.754;8.772;2022-07-29T02:00:05;2.53;;;1.55;;
62704;SDS011;48767;50.754;8.772;2022-07-29T02:02:33;4.22;;;1.33;;
62704;SDS011;48767;50.754;8.772;2022-07-29T02:05:04;5.95;;;1.20;;
62704;SDS011;48767;50.754;8.772;2022-07-29T02:07:34;3.97;;;1.20;;
62704;SDS011;48767;50.754;8.772;2022-07-29T02:10:03;5.47;;;1.40;;
62704;SDS011;48767;50.754;8.772;2022-07-29T02:12:32;3.13;;;1.58;;
62704;SDS011;48767;50.754;8.772;2022-07-29T02:15:02;2.30;;;1.73;;
62704;SDS011;48767;50.754;8.772;2022-07-29T02:17:32;3.15;;;1.33;;
62704;SDS011;48767;50.754;8.772;2022-07-29T02:22:33;2.92;;;1.30;;
62704;SDS011;48767;50.754;8.772;2022-07-29T02:25:03;3.00;;;1.40;;
62704;SDS011;48767;50.754;8.772;2022-07-29T02:27:31;4.30;;;1.65;;
62704;SDS011;48767;50.754;8.772;2022-07-29T02:30:00;6.05;;;1.67;;
62704;SDS011;48767;50.754;8.772;2022-07-29T02:32:29;2.80;;;1.27;;
62704;SDS011;48767;50.754;8.772;2022-07-29T02:34:58;3.65;;;1.38;;
62704;SDS011;48767;50.754;8.772;2022-07-29T02:37:25;2.05;;;1.30;;
62704;SDS011;48767;50.754;8.772;2022-07-29T02:39:54;1.30;;;1.20;;
62704;SDS011;48767;50.754;8.772;2022-07-29T02:42:21;3.15;;;1.27;;
62704;SDS011;48767;50.754;8.772;2022-07-29T02:44:50;3.70;;;1.73;;
62704;SDS011;48767;50.754;8.772;2022-07-29T02:47:18;3.20;;;1.27;;
62704;SDS011;48767;50.754;8.772;2022-07-29T02:49:51;4.18;;;1.67;;
62704;SDS011;48767;50.754;8.772;2022-07-29T02:52:21;3.00;;;1.40;;
62704;SDS011;48767;50.754;8.772;2022-07-29T02:54:54;3.65;;;1.33;;
62704;SDS011;48767;50.754;8.772;2022-07-29T02:57:24;4.60;;;1.38;;
62704;SDS011;48767;50.754;8.772;2022-07-29T02:59:58;3.25;;;1.33;;
62704;SDS011;48767;50.754;8.772;2022-07-29T03:02:29;7.22;;;2.78;;
62704;SDS011;48767;50.754;8.772;2022-07-29T03:05:01;4.53;;;1.38;;
62704;SDS011;48767;50.754;8.772;2022-07-29T03:07:29;3.60;;;1.60;;
62704;SDS011;48767;50.754;8.772;2022-07-29T03:09:56;4.47;;;1.15;;
62704;SDS011;48767;50.754;8.772;2022-07-29T03:12:23;3.55;;;1.50;;
62704;SDS011;48767;50.754;8.772;2022-07-29T03:14:51;4.75;;;1.70;;
62704;SDS011;48767;50.754;8.772;2022-07-29T03:17:18;6.78;;;1.95;;
62704;SDS011;48767;50.754;8.772;2022-07-29T03:19:47;5.10;;;1.63;;
62704;SDS011;48767;50.754;8.772;2022-07-29T03:22:15;2.25;;;1.38;;
62704;SDS011;48767;50.754;8.772;2022-07-29T03:24:42;3.13;;;1.45;;
62704;SDS011;48767;50.754;8.772;2022-07-29T03:27:09;3.45;;;1.63;;
62704;SDS011;48767;50.754;8.772;2022-07-29T03:29:35;4.25;;;1.70;;
62704;SDS011;48767;50.754;8.772;2022-07-29T03:32:03;3.00;;;1.45;;
62704;SDS011;48767;50.754;8.772;2022-07-29T03:34:32;4.03;;;1.70;;
62704;SDS011;48767;50.754;8.772;2022-07-29T03:36:58;3.28;;;1.52;;
62704;SDS011;48767;50.754;8.772;2022-07-29T03:39:27;1.88;;;1.30;;
62704;SDS011;48767;50.754;8.772;2022-07-29T03:41:57;4.65;;;2.25;;
62704;SDS011;48767;50.754;8.772;2022-07-29T03:44:25;4.00;;;1.35;;
62704;SDS011;48767;50.754;8.772;2022-07-29T03:46:54;7.90;;;1.65;;
62704;SDS011;48767;50.754;8.772;2022-07-29T03:49:24;3.20;;;1.35;;
62704;SDS011;48767;50.754;8.772;2022-07-29T03:51:52;2.97;;;1.50;;
62704;SDS011;48767;50.754;8.772;2022-07-29T03:54:19;4.43;;;1.60;;
62704;SDS011;48767;50.754;8.772;2022-07-29T03:56:47;3.65;;;1.88;;
62704;SDS011;48767;50.754;8.772;2022-07-29T03:59:15;3.58;;;1.27;;
62704;SDS011;48767;50.754;8.772;2022-07-29T04:01:44;4.72;;;1.58;;
62704;SDS011;48767;50.754;8.772;2022-07-29T04:04:12;2.50;;;1.33;;
62704;SDS011;48767;50.754;8.772;2022-07-29T04:06:39;4.22;;;1.20;;
62704;SDS011;48767;50.754;8.772;2022-07-29T04:09:06;4.80;;;1.80;;
62704;SDS011;48767;50.754;8.772;2022-07-29T04:11:33;3.63;;;1.65;;
62704;SDS011;48767;50.754;8.772;2022-07-29T04:14:01;5.60;;;1.50;;
62704;SDS011;48767;50.754;8.772;2022-07-29T04:16:28;5.50;;;1.45;;
62704;SDS011;48767;50.754;8.772;2022-07-29T04:18:54;3.03;;;1.40;;
62704;SDS011;48767;50.754;8.772;2022-07-29T04:21:21;3.75;;;1.90;;
62704;SDS011;48767;50.754;8.772;2022-07-29T04:23:47;4.50;;;1.38;;
62704;SDS011;48767;50.754;8.772;2022-07-29T04:26:15;4.45;;;1.40;;
62704;SDS011;48767;50.754;8.772;2022-07-29T04:28:42;3.22;;;1.30;;
62704;SDS011;48767;50.754;8.772;2022-07-29T04:31:09;5.75;;;1.55;;
62704;SDS011;48767;50.754;8.772;2022-07-29T04:33:36;5.93;;;1.60;;
62704;SDS011;48767;50.754;8.772;2022-07-29T04:36:03;3.42;;;1.45;;
62704;SDS011;48767;50.754;8.772;2022-07-29T04:38:30;11.48;;;1.70;;
62704;SDS011;48767;50.754;8.772;2022-07-29T04:40:57;3.47;;;1.48;;
62704;SDS011;48767;50.754;8.772;2022-07-29T04:43:23;5.15;;;1.67;;
62704;SDS011;48767;50.754;8.772;2022-07-29T04:45:49;2.55;;;1.42;;
62704;SDS011;48767;50.754;8.772;2022-07-29T04:48:17;3.50;;;1.45;;
62704;SDS011;48767;50.754;8.772;2022-07-29T04:50:44;3.60;;;1.83;;
62704;SDS011;48767;50.754;8.772;2022-07-29T04:53:10;8.38;;;1.80;;
62704;SDS011;48767;50.754;8.772;2022-07-29T04:55:37;5.50;;;1.60;;
62704;SDS011;48767;50.754;8.772;2022-07-29T04:58:03;7.55;;;2.25;;
62704;SDS011;48767;50.754;8.772;2022-07-29T05:00:30;4.38;;;2.10;;
62704;SDS011;48767;50.754;8.772;2022-07-29T05:02:56;5.38;;;3.15;;
62704;SDS011;48767;50.754;8.772;2022-07-29T05:05:24;5.80;;;2.47;;
62704;SDS011;48767;50.754;8.772;2022-07-29T05:10:17;3.90;;;1.77;;
62704;SDS011;48767;50.754;8.772;2022-07-29T05:12:43;7.35;;;2.35;;
62704;SDS011;48767;50.754;8.772;2022-07-29T05:15:10;3.97;;;1.92;;
62704;SDS011;48767;50.754;8.772;2022-07-29T05:17:36;8.40;;;2.08;;
62704;SDS011;48767;50.754;8.772;2022-07-29T05:20:03;10.32;;;2.33;;
62704;SDS011;48767;50.754;8.772;2022-07-29T05:22:31;4.70;;;2.25;;
62704;SDS011;48767;50.754;8.772;2022-07-29T05:24:58;2.95;;;1.90;;
62704;SDS011;48767;50.754;8.772;2022-07-29T05:27:24;5.13;;;2.42;;
62704;SDS011;48767;50.754;8.772;2022-07-29T05:29:51;5.07;;;1.90;;
62704;SDS011;48767;50.754;8.772;2022-07-29T05:32:17;6.80;;;2.47;;
62704;SDS011;48767;50.754;8.772;2022-07-29T05:34:44;3.58;;;1.77;;
62704;SDS011;48767;50.754;8.772;2022-07-29T05:37:10;5.50;;;2.55;;
62704;SDS011;48767;50.754;8.772;2022-07-29T05:39:39;3.80;;;2.17;;
62704;SDS011;48767;50.754;8.772;2022-07-29T05:44:35;3.30;;;1.95;;
62704;SDS011;48767;50.754;8.772;2022-07-29T05:47:02;4.60;;;2.50;;
62704;SDS011;48767;50.754;8.772;2022-07-29T05:49:29;5.53;;;2.17;;
62704;SDS011;48767;50.754;8.772;2022-07-29T05:51:55;7.68;;;2.17;;
62704;SDS011;48767;50.754;8.772;2022-07-29T05:54:22;10.45;;;5.18;;
62704;SDS011;48767;50.754;8.772;2022-07-29T05:56:49;4.35;;;1.98;;
62704;SDS011;48767;50.754;8.772;2022-07-29T05:59:16;4.18;;;1.83;;
62704;SDS011;48767;50.754;8.772;2022-07-29T06:01:42;3.78;;;1.73;;
62704;SDS011;48767;50.754;8.772;2022-07-29T06:04:09;4.82;;;1.80;;
62704;SDS011;48767;50.754;8.772;2022-07-29T06:06:35;6.13;;;1.98;;
62704;SDS011;48767;50.754;8.772;2022-07-29T06:09:02;4.40;;;1.65;;
62704;SDS011;48767;50.754;8.772;2022-07-29T06:11:29;2.10;;;1.58;;
62704;SDS011;48767;50.754;8.772;2022-07-29T06:13:57;3.95;;;1.85;;
62704;SDS011;48767;50.754;8.772;2022-07-29T06:16:23;2.72;;;1.98;;
62704;SDS011;48767;50.754;8.772;2022-07-29T06:18:49;5.60;;;2.13;;
62704;SDS011;48767;50.754;8.772;2022-07-29T06:21:17;6.45;;;2.45;;
62704;SDS011;48767;50.754;8.772;2022-07-29T06:23:43;6.05;;;1.90;;
62704;SDS011;48767;50.754;8.772;2022-07-29T06:26:10;5.45;;;2.13;;
62704;SDS011;48767;50.754;8.772;2022-07-29T06:28:37;8.88;;;2.15;;
62704;SDS011;48767;50.754;8.772;2022-07-29T06:31:06;5.70;;;2.70;;
62704;SDS011;48767;50.754;8.772;2022-07-29T06:33:32;7.15;;;2.10;;
62704;SDS011;48767;50.754;8.772;2022-07-29T06:35:59;6.13;;;2.13;;
62704;SDS011;48767;50.754;8.772;2022-07-29T06:38:25;7.18;;;2.38;;
62704;SDS011;48767;50.754;8.772;2022-07-29T06:40:52;3.60;;;1.90;;
62704;SDS011;48767;50.754;8.772;2022-07-29T06:43:29;4.35;;;1.90;;
62704;SDS011;48767;50.754;8.772;2022-07-29T06:45:59;5.20;;;2.38;;
62704;SDS011;48767;50.754;8.772;2022-07-29T06:48:28;6.07;;;2.20;;
62704;SDS011;48767;50.754;8.772;2022-07-29T06:50:55;3.53;;;1.58;;
62704;SDS011;48767;50.754;8.772;2022-07-29T06:53:21;5.15;;;1.80;;
62704;SDS011;48767;50.754;8.772;2022-07-29T06:55:48;5.38;;;1.80;;
62704;SDS011;48767;50.754;8.772;2022-07-29T06:58:15;3.35;;;1.98;;
62704;SDS011;48767;50.754;8.772;2022-07-29T07:00:44;4.50;;;1.80;;
62704;SDS011;48767;50.754;8.772;2022-07-29T07:03:11;18.67;;;2.13;;
62704;SDS011;48767;50.754;8.772;2022-07-29T07:05:39;8.07;;;2.00;;
62704;SDS011;48767;50.754;8.772;2022-07-29T07:08:05;5.50;;;1.90;;
62704;SDS011;48767;50.754;8.772;2022-07-29T07:10:33;4.55;;;1.67;;
62704;SDS011;48767;50.754;8.772;2022-07-29T07:12:59;4.53;;;1.90;;
62704;SDS011;48767;50.754;8.772;2022-07-29T07:15:27;7.10;;;2.00;;
62704;SDS011;48767;50.754;8.772;2022-07-29T07:17:53;6.30;;;1.70;;
62704;SDS011;48767;50.754;8.772;2022-07-29T07:20:20;5.43;;;2.00;;
62704;SDS011;48767;50.754;8.772;2022-07-29T07:22:48;7.90;;;1.73;;
62704;SDS011;48767;50.754;8.772;2022-07-29T07:27:42;4.88;;;1.90;;
62704;SDS011;48767;50.754;8.772;2022-07-29T07:30:09;3.38;;;1.75;;
62704;SDS011;48767;50.754;8.772;2022-07-29T07:32:35;2.20;;;1.58;;
62704;SDS011;48767;50.754;8.772;2022-07-29T07:35:03;3.85;;;1.92;;
62704;SDS011;48767;50.754;8.772;2022-07-29T07:39:58;3.55;;;1.65;;
62704;SDS011;48767;50.754;8.772;2022-07-29T07:42:25;3.45;;;1.65;;
62704;SDS011;48767;50.754;8.772;2022-07-29T07:44:51;3.15;;;2.13;;
62704;SDS011;48767;50.754;8.772;2022-07-29T07:47:18;3.25;;;1.80;;
62704;SDS011;48767;50.754;8.772;2022-07-29T07:49:45;3.40;;;1.88;;
62704;SDS011;48767;50.754;8.772;2022-07-29T07:52:12;2.58;;;1.67;;
62704;SDS011;48767;50.754;8.772;2022-07-29T07:54:38;6.10;;;1.80;;
62704;SDS011;48767;50.754;8.772;2022-07-29T07:57:06;6.63;;;2.65;;
62704;SDS011;48767;50.754;8.772;2022-07-29T07:59:33;5.93;;;2.53;;
62704;SDS011;48767;50.754;8.772;2022-07-29T08:01:59;4.22;;;1.90;;
62704;SDS011;48767;50.754;8.772;2022-07-29T08:04:26;8.38;;;2.20;;
62704;SDS011;48767;50.754;8.772;2022-07-29T08:06:53;3.55;;;1.90;;
62704;SDS011;48767;50.754;8.772;2022-07-29T08:09:20;9.80;;;2.55;;
62704;SDS011;48767;50.754;8.772;2022-07-29T08:11:46;6.10;;;1.90;;
62704;SDS011;48767;50.754;8.772;2022-07-29T08:14:14;5.35;;;2.35;;
62704;SDS011;48767;50.754;8.772;2022-07-29T08:19:08;6.40;;;2.78;;
62704;SDS011;48767;50.754;8.772;2022-07-29T08:21:34;3.85;;;2.05;;
62704;SDS011;48767;50.754;8.772;2022-07-29T08:24:02;7.07;;;2.00;;
62704;SDS011;48767;50.754;8.772;2022-07-29T08:26:47;2.13;;;1.65;;
62704;SDS011;48767;50.754;8.772;2022-07-29T08:29:15;5.97;;;2.83;;
62704;SDS011;48767;50.754;8.772;2022-07-29T08:31:42;3.42;;;2.10;;
62704;SDS011;48767;50.754;8.772;2022-07-29T08:34:09;4.70;;;2.97;;
62704;SDS011;48767;50.754;8.772;2022-07-29T08:36:35;5.15;;;2.60;;
62704;SDS011;48767;50.754;8.772;2022-07-29T08:39:02;6.82;;;2.80;;
62704;SDS011;48767;50.754;8.772;2022-07-29T08:41:29;8.23;;;2.60;;
62704;SDS011;48767;50.754;8.772;2022-07-29T08:43:56;4.30;;;1.90;;
62704;SDS011;48767;50.754;8.772;2022-07-29T08:46:24;7.72;;;2.67;;
62704;SDS011;48767;50.754;8.772;2022-07-29T08:51:18;3.42;;;2.45;;
62704;SDS011;48767;50.754;8.772;2022-07-29T08:53:46;2.92;;;2.15;;
62704;SDS011;48767;50.754;8.772;2022-07-29T08:56:14;3.95;;;2.28;;
62704;SDS011;48767;50.754;8.772;2022-07-29T08:58:42;4.00;;;2.38;;
62704;SDS011;48767;50.754;8.772;2022-07-29T09:03:39;3.60;;;2.45;;
62704;SDS011;48767;50.754;8.772;2022-07-29T09:06:07;5.30;;;2.97;;
62704;SDS011;48767;50.754;8.772;2022-07-29T09:08:34;5.72;;;2.58;;
62704;SDS011;48767;50.754;8.772;2022-07-29T09:11:00;4.47;;;2.30;;
62704;SDS011;48767;50.754;8.772;2022-07-29T09:15:54;4.68;;;2.30;;
62704;SDS011;48767;50.754;8.772;2022-07-29T09:18:33;5.32;;;2.72;;
62704;SDS011;48767;50.754;8.772;2022-07-29T09:21:01;6.50;;;2.95;;
62704;SDS011;48767;50.754;8.772;2022-07-29T09:26:33;6.57;;;2.58;;
62704;SDS011;48767;50.754;8.772;2022-07-29T09:29:07;3.97;;;2.60;;
62704;SDS011;48767;50.754;8.772;2022-07-29T09:31:35;4.65;;;2.35;;
62704;SDS011;48767;50.754;8.772;2022-07-29T09:34:04;4.32;;;2.33;;
62704;SDS011;48767;50.754;8.772;2022-07-29T09:36:32;5.82;;;2.60;;
62704;SDS011;48767;50.754;8.772;2022-07-29T09:39:04;5.45;;;2.25;;
62704;SDS011;48767;50.754;8.772;2022-07-29T09:41:43;6.45;;;2.85;;
62704;SDS011;48767;50.754;8.772;2022-07-29T09:44:10;4.03;;;2.30;;
62704;SDS011;48767;50.754;8.772;2022-07-29T09:46:37;3.58;;;2.13;;
62704;SDS011;48767;50.754;8.772;2022-07-29T09:49:07;4.00;;;3.03;;
62704;SDS011;48767;50.754;8.772;2022-07-29T09:51:35;5.63;;;2.50;;
62704;SDS011;48767;50.754;8.772;2022-07-29T09:54:02;4.38;;;2.58;;
62704;SDS011;48767;50.754;8.772;2022-07-29T09:56:48;7.85;;;3.03;;
62704;SDS011;48767;50.754;8.772;2022-07-29T09:59:14;4.15;;;2.75;;
62704;SDS011;48767;50.754;8.772;2022-07-29T10:01:41;5.53;;;2.92;;
62704;SDS011;48767;50.754;8.772;2022-07-29T10:04:08;4.05;;;3.08;;
62704;SDS011;48767;50.754;8.772;2022-07-29T10:06:36;3.40;;;2.50;;
62704;SDS011;48767;50.754;8.772;2022-07-29T10:09:21;4.65;;;2.47;;
62704;SDS011;48767;50.754;8.772;2022-07-29T10:12:02;6.65;;;2.58;;
62704;SDS011;48767;50.754;8.772;2022-07-29T10:14:30;5.30;;;2.45;;
62704;SDS011;48767;50.754;8.772;2022-07-29T10:16:57;6.75;;;3.15;;
62704;SDS011;48767;50.754;8.772;2022-07-29T10:19:25;4.93;;;2.30;;
62704;SDS011;48767;50.754;8.772;2022-07-29T10:21:53;4.25;;;2.67;;
62704;SDS011;48767;50.754;8.772;2022-07-29T10:24:20;5.53;;;2.85;;
62704;SDS011;48767;50.754;8.772;2022-07-29T10:26:47;5.88;;;2.40;;
62704;SDS011;48767;50.754;8.772;2022-07-29T10:29:14;3.58;;;2.72;;
62704;SDS011;48767;50.754;8.772;2022-07-29T10:31:41;3.67;;;2.72;;
62704;SDS011;48767;50.754;8.772;2022-07-29T10:34:17;7.25;;;2.78;;
62704;SDS011;48767;50.754;8.772;2022-07-29T10:36:51;4.18;;;2.50;;
62704;SDS011;48767;50.754;8.772;2022-07-29T10:39:33;5.90;;;2.50;;
62704;SDS011;48767;50.754;8.772;2022-07-29T10:42:14;4.32;;;2.55;;
62704;SDS011;48767;50.754;8.772;2022-07-29T10:44:44;4.45;;;3.13;;
62704;SDS011;48767;50.754;8.772;2022-07-29T10:47:19;8.00;;;2.83;;
62704;SDS011;48767;50.754;8.772;2022-07-29T10:49:54;3.47;;;2.28;;
62704;SDS011;48767;50.754;8.772;2022-07-29T10:52:23;3.38;;;2.28;;
62704;SDS011;48767;50.754;8.772;2022-07-29T10:54:52;6.30;;;2.30;;
62704;SDS011;48767;50.754;8.772;2022-07-29T10:57:21;9.85;;;2.63;;
62704;SDS011;48767;50.754;8.772;2022-07-29T11:02:57;5.13;;;2.40;;
62704;SDS011;48767;50.754;8.772;2022-07-29T11:10:46;4.75;;;2.25;;
62704;SDS011;48767;50.754;8.772;2022-07-29T11:16:11;3.88;;;2.25;;
62704;SDS011;48767;50.754;8.772;2022-07-29T11:21:39;8.43;;;2.70;;
62704;SDS011;48767;50.754;8.772;2022-07-29T11:24:13;4.38;;;2.80;;
62704;SDS011;48767;50.754;8.772;2022-07-29T11:26:41;4.40;;;2.30;;
62704;SDS011;48767;50.754;8.772;2022-07-29T11:29:15;6.90;;;2.60;;
62704;SDS011;48767;50.754;8.772;2022-07-29T11:31:45;5.18;;;2.60;;
62704;SDS011;48767;50.754;8.772;2022-07-29T11:34:17;4.82;;;2.28;;
62704;SDS011;48767;50.754;8.772;2022-07-29T11:42:47;4.57;;;2.50;;
62704;SDS011;48767;50.754;8.772;2022-07-29T11:45:15;5.70;;;2.40;;
62704;SDS011;48767;50.754;8.772;2022-07-29T11:47:57;4.40;;;2.90;;
62704;SDS011;48767;50.754;8.772;2022-07-29T11:50:32;5.78;;;2.92;;
62704;SDS011;48767;50.754;8.772;2022-07-29T11:53:00;4.32;;;2.70;;
62704;SDS011;48767;50.754;8.772;2022-07-29T11:55:29;4.50;;;2.35;;
62704;SDS011;48767;50.754;8.772;2022-07-29T11:58:00;5.80;;;2.50;;
62704;SDS011;48767;50.754;8.772;2022-07-29T12:00:29;5.68;;;2.78;;
62704;SDS011;48767;50.754;8.772;2022-07-29T12:02:57;3.85;;;2.58;;
62704;SDS011;48767;50.754;8.772;2022-07-29T12:05:31;8.73;;;2.85;;
62704;SDS011;48767;50.754;8.772;2022-07-29T12:08:06;4.30;;;2.78;;
62704;SDS011;48767;50.754;8.772;2022-07-29T12:10:36;3.92;;;2.20;;
62704;SDS011;48767;50.754;8.772;2022-07-29T12:13:03;6.82;;;2.83;;
62704;SDS011;48767;50.754;8.772;2022-07-29T12:15:30;3.85;;;2.50;;
62704;SDS011;48767;50.754;8.772;2022-07-29T12:17:57;3.80;;;2.25;;
62704;SDS011;48767;50.754;8.772;2022-07-29T12:20:24;4.70;;;2.70;;
62704;SDS011;48767;50.754;8.772;2022-07-29T12:22:52;4.88;;;2.20;;
62704;SDS011;48767;50.754;8.772;2022-07-29T12:27:48;6.22;;;2.90;;
62704;SDS011;48767;50.754;8.772;2022-07-29T12:30:33;4.38;;;2.50;;
62704;SDS011;48767;50.754;8.772;2022-07-29T12:35:54;7.43;;;2.75;;
62704;SDS011;48767;50.754;8.772;2022-07-29T12:38:22;11.00;;;2.97;;
62704;SDS011;48767;50.754;8.772;2022-07-29T12:40:49;4.28;;;2.60;;
62704;SDS011;48767;50.754;8.772;2022-07-29T12:43:20;3.47;;;2.13;;
62704;SDS011;48767;50.754;8.772;2022-07-29T12:45:48;5.85;;;2.25;;
62704;SDS011;48767;50.754;8.772;2022-07-29T12:48:16;5.75;;;2.50;;
62704;SDS011;48767;50.754;8.772;2022-07-29T12:53:20;2.60;;;1.73;;
62704;SDS011;48767;50.754;8.772;2022-07-29T12:55:48;4.25;;;3.05;;
62704;SDS011;48767;50.754;8.772;2022-07-29T13:01:09;2.72;;;1.88;;
62704;SDS011;48767;50.754;8.772;2022-07-29T13:03:47;4.25;;;2.13;;
62704;SDS011;48767;50.754;8.772;2022-07-29T13:06:29;3.67;;;2.25;;
62704;SDS011;48767;50.754;8.772;2022-07-29T13:09:01;3.53;;;2.15;;
62704;SDS011;48767;50.754;8.772;2022-07-29T13:11:30;6.22;;;2.58;;
62704;SDS011;48767;50.754;8.772;2022-07-29T13:13:59;2.53;;;2.10;;
62704;SDS011;48767;50.754;8.772;2022-07-29T13:16:25;2.97;;;2.38;;
62704;SDS011;48767;50.754;8.772;2022-07-29T13:21:35;2.67;;;1.80;;
62704;SDS011;48767;50.754;8.772;2022-07-29T13:24:02;3.00;;;2.45;;
62704;SDS011;48767;50.754;8.772;2022-07-29T13:26:28;4.20;;;2.50;;
62704;SDS011;48767;50.754;8.772;2022-07-29T13:28:55;6.30;;;2.28;;
62704;SDS011;48767;50.754;8.772;2022-07-29T13:31:23;9.25;;;2.70;;
62704;SDS011;48767;50.754;8.772;2022-07-29T13:33:49;3.03;;;2.20;;
62704;SDS011;48767;50.754;8.772;2022-07-29T13:36:16;3.55;;;2.50;;
62704;SDS011;48767;50.754;8.772;2022-07-29T13:38:43;5.88;;;2.55;;
62704;SDS011;48767;50.754;8.772;2022-07-29T13:41:09;3.95;;;2.15;;
62704;SDS011;48767;50.754;8.772;2022-07-29T13:43:36;3.67;;;2.15;;
62704;SDS011;48767;50.754;8.772;2022-07-29T13:46:02;4.82;;;2.53;;
62704;SDS011;48767;50.754;8.772;2022-07-29T13:48:30;6.10;;;2.15;;
62704;SDS011;48767;50.754;8.772;2022-07-29T13:50:57;3.88;;;2.33;;
62704;SDS011;48767;50.754;8.772;2022-07-29T13:53:23;4.47;;;2.38;;
62704;SDS011;48767;50.754;8.772;2022-07-29T13:55:50;4.13;;;2.35;;
62704;SDS011;48767;50.754;8.772;2022-07-29T13:58:16;3.08;;;2.40;;
62704;SDS011;48767;50.754;8.772;2022-07-29T14:00:43;3.20;;;2.30;;
62704;SDS011;48767;50.754;8.772;2022-07-29T14:03:10;3.15;;;2.22;;
62704;SDS011;48767;50.754;8.772;2022-07-29T14:05:38;3.55;;;2.50;;
62704;SDS011;48767;50.754;8.772;2022-07-29T14:08:04;3.08;;;2.50;;
62704;SDS011;48767;50.754;8.772;2022-07-29T14:10:31;4.05;;;2.10;;
62704;SDS011;48767;50.754;8.772;2022-07-29T14:12:57;2.75;;;2.45;;
62704;SDS011;48767;50.754;8.772;2022-07-29T14:15:24;3.45;;;2.40;;
62704;SDS011;48767;50.754;8.772;2022-07-29T14:17:50;3.90;;;2.30;;
62704;SDS011;48767;50.754;8.772;2022-07-29T14:20:17;3.88;;;2.80;;
62704;SDS011;48767;50.754;8.772;2022-07-29T14:22:44;3.33;;;2.38;;
62704;SDS011;48767;50.754;8.772;2022-07-29T14:25:11;4.75;;;2.47;;
62704;SDS011;48767;50.754;8.772;2022-07-29T14:27:37;2.70;;;2.17;;
62704;SDS011;48767;50.754;8.772;2022-07-29T14:30:04;4.43;;;2.28;;
62704;SDS011;48767;50.754;8.772;2022-07-29T14:32:32;3.67;;;1.75;;
62704;SDS011;48767;50.754;8.772;2022-07-29T14:34:58;4.53;;;2.00;;
62704;SDS011;48767;50.754;8.772;2022-07-29T14:37:25;4.15;;;2.20;;
62704;SDS011;48767;50.754;8.772;2022-07-29T14:39:52;6.95;;;2.50;;
62704;SDS011;48767;50.754;8.772;2022-07-29T14:42:24;2.88;;;2.20;;
62704;SDS011;48767;50.754;8.772;2022-07-29T14:44:50;3.78;;;2.33;;
62704;SDS011;48767;50.754;8.772;2022-07-29T14:47:17;3.38;;;2.50;;
62704;SDS011;48767;50.754;8.772;2022-07-29T14:49:44;3.40;;;2.13;;
62704;SDS011;48767;50.754;8.772;2022-07-29T14:52:11;5.25;;;2.28;;
62704;SDS011;48767;50.754;8.772;2022-07-29T14:54:37;4.93;;;2.17;;
62704;SDS011;48767;50.754;8.772;2022-07-29T14:57:05;4.93;;;2.22;;
62704;SDS011;48767;50.754;8.772;2022-07-29T14:59:31;4.30;;;2.28;;
62704;SDS011;48767;50.754;8.772;2022-07-29T15:01:58;3.33;;;2.13;;
62704;SDS011;48767;50.754;8.772;2022-07-29T15:04:24;3.25;;;2.25;;
62704;SDS011;48767;50.754;8.772;2022-07-29T15:06:51;4.05;;;2.58;;
62704;SDS011;48767;50.754;8.772;2022-07-29T15:09:17;5.03;;;2.35;;
62704;SDS011;48767;50.754;8.772;2022-07-29T15:11:44;4.15;;;2.38;;
62704;SDS011;48767;50.754;8.772;2022-07-29T15:14:12;8.13;;;2.45;;
62704;SDS011;48767;50.754;8.772;2022-07-29T15:16:38;6.72;;;2.47;;
62704;SDS011;48767;50.754;8.772;2022-07-29T15:19:07;5.28;;;2.60;;
62704;SDS011;48767;50.754;8.772;2022-07-29T15:21:33;4.30;;;2.40;;
62704;SDS011;48767;50.754;8.772;2022-07-29T15:24:00;5.57;;;2.20;;
62704;SDS011;48767;50.754;8.772;2022-07-29T15:26:27;4.93;;;2.80;;
62704;SDS011;48767;50.754;8.772;2022-07-29T15:28:53;4.93;;;2.17;;
62704;SDS011;48767;50.754;8.772;2022-07-29T15:31:21;4.38;;;2.38;;
62704;SDS011;48767;50.754;8.772;2022-07-29T15:33:48;2.75;;;2.40;;
62704;SDS011;48767;50.754;8.772;2022-07-29T15:36:14;3.47;;;2.58;;
62704;SDS011;48767;50.754;8.772;2022-07-29T15:38:41;3.95;;;2.17;;
62704;SDS011;48767;50.754;8.772;2022-07-29T15:41:09;5.05;;;2.50;;
62704;SDS011;48767;50.754;8.772;2022-07-29T15:43:35;3.25;;;2.95;;
62704;SDS011;48767;50.754;8.772;2022-07-29T15:46:02;3.72;;;2.88;;
62704;SDS011;48767;50.754;8.772;2022-07-29T15:48:47;3.83;;;2.28;;
62704;SDS011;48767;50.754;8.772;2022-07-29T15:51:14;3.22;;;2.58;;
62704;SDS011;48767;50.754;8.772;2022-07-29T15:53:40;3.42;;;2.28;;
62704;SDS011;48767;50.754;8.772;2022-07-29T15:56:07;15.20;;;3.20;;
62704;SDS011;48767;50.754;8.772;2022-07-29T15:58:33;5.45;;;1.90;;